• Join FlightAware (Why Join?)
  • Login
  • US Flag 
04:55AM EDT


 

Airport Tracker/Info


-or-


 

Live Flight TrackerFlight Track Log ✈ PDT4314 ✈ 27-Oct-2013 ✈ KPHL - KBGM

Flight Track Log - Related Links

Times and Time Zones

All times are in EDT time to prevent confusion due to time zone crossing. See the PDT4314 flight status page for this flight to view local times or setup timezone preferences in your user account.

Time Position Orientation Groundspeed Altitude Reporting Facility
EDT Latitude Longitude Course Direction KTS MPH feet Rate Location/Type
05:40PM 39.9000 -75.2333 303° West 115 132 500  Level Philadelphia TRACON
05:41PM 39.9000 -75.2667 270° West 125 144 1,700 1,260 Climbing Philadelphia TRACON
05:42PM 39.9167 -75.3167 294° West 138 159 2,800 1,080 Climbing Philadelphia TRACON
05:43PM 39.9333 -75.3667 294° West 141 162 3,900 1,080 Climbing Philadelphia TRACON
05:44PM 39.9500 -75.4167 294° West 142 163 5,100 960 Climbing Philadelphia TRACON
05:45PM 40.2187 -75.3471 310° West  Level Estimated
05:45PM 39.9667 -75.4667 294° West 151 174 5,900  Level Philadelphia TRACON
05:46PM 40.2579 -75.4249 303° West  Level FlightAware Approximate
05:46PM 39.9833 -75.5000 303° West 142 163 7,200  Level Philadelphia TRACON
05:47PM 40.0000 -75.5500 294° West 149 171 8,000 720 Climbing Philadelphia TRACON
05:48PM 40.0500 -75.5500 360° North 178 205 8,700 480 Climbing Philadelphia TRACON
05:49PM 40.1000 -75.5500 360° North 193 222 9,000 240 Climbing Philadelphia TRACON
05:50PM 40.1644 -75.5569 355° North 203 234 9,300 480 Climbing New York Center
05:51PM 40.2181 -75.5686 351° North 197 227 10,200 780 Climbing New York Center
05:52PM 40.2608 -75.5961 334° Northwest 183 211 10,900 660 Climbing New York Center
05:53PM 40.3017 -75.6181 338° Northwest 177 204 11,600 660 Climbing New York Center
05:54PM 40.3486 -75.6403 340° North 172 198 12,300 660 Climbing New York Center
05:55PM 40.3911 -75.6733 329° Northwest 167 192 13,000 660 Climbing New York Center
05:56PM 40.4333 -75.7064 329° Northwest 167 192 13,700 480 Climbing New York Center
05:57PM 40.4803 -75.7317 338° Northwest 173 199 14,000 120 Climbing New York Center
05:58PM 40.5228 -75.7619 332° Northwest 189 217 14,000  Level New York Center
05:59PM 40.5756 -75.7931 336° Northwest 200 230 14,000  Level New York Center
06:00PM 40.6344 -75.8303 334° Northwest 212 244 14,000  Level New York Center
06:01PM 40.6914 -75.8617 337° Northwest 212 244 14,000  Level New York Center
06:02PM 40.7442 -75.8986 332° Northwest 212 244 14,000  Level New York Center
06:03PM 40.7928 -75.9297 334° Northwest 212 244 14,000  Level New York Center
06:04PM 40.8475 -75.9639 335° Northwest 218 251 14,000  Level New York Center
06:05PM 40.9061 -76.0042 333° Northwest 212 244 14,000  Level New York Center
06:06PM 40.9569 -76.0328 337° Northwest 212 244 14,000  Level New York Center
06:07PM 41.0158 -76.0675 336° Northwest 212 244 14,000  Level New York Center
06:08PM 41.0661 -76.1044 331° Northwest 212 244 14,000  Level New York Center
06:09PM 41.1169 -76.1333 337° Northwest 218 251 14,000  Level New York Center
06:10PM 41.1694 -76.1706 332° Northwest 213 245 14,000  Level New York Center
06:11PM 41.2261 -76.2081 334° Northwest 213 245 14,000  Level New York Center
06:12PM 41.2908 -76.2022 North 218 251 14,000  Level New York Center
06:13PM 41.3539 -76.1908 North 225 259 14,000  Level New York Center
06:14PM 41.4119 -76.1956 357° North 225 259 14,000  Level New York Center
06:15PM 41.4767 -76.1925 North 225 259 14,000  Level New York Center
06:16PM 41.5444 -76.1703 14° North 231 266 14,000 -420 Level New York Center
06:17PM 41.6119 -76.1506 12° North 241 277 13,200 -1,200 Descending New York Center
06:18PM 41.6833 -76.1369 North 246 283 11,700 -1,500 Descending New York Center
06:19PM 41.7486 -76.1228 North 257 296 10,300 -1,680 Descending New York Center
06:20PM 41.8164 -76.0975 16° North 257 296 8,400 -660 Descending New York Center
06:21PM 41.8836 -76.0864 North 231 266 9,000 300 Climbing New York Center
06:22PM 41.9447 -76.0661 14° North 223 257 9,000  Level New York Center
06:23PM 41.9975 -76.0536 10° North 202 232 9,000  Level New York Center
06:24PM 42.0436 -76.0433 North 186 214 9,000  Level New York Center
06:25PM 42.0969 -76.0167 20° North 180 207 9,000  Level New York Center
06:26PM 42.1303 -75.9664 48° Northeast 175 201 9,000  Level New York Center
06:27PM 42.1647 -75.9439 26° Northeast 158 182 9,000  Level New York Center
06:28PM 42.1847 -75.9622 326° Northwest 113 130 9,000  Level New York Center
06:29PM 42.2206 -75.9483 16° North 113 130 9,000  Level New York Center
06:30PM 42.2519 -75.9453 North 113 130 9,000  Level New York Center